Extreme weather reports worldwide

High winds

Station
 
Location
 
Name
 
Wind
Knots
Gust
Knots
Vis
SM
Temp/Dew
C
Baro
inHg
METAR
 
CWQK 39 44 9/5 CWQK 150100Z AUTO 29039G44KT 10/05 RMK AO1 PK WND 29044/0057 SLP160 T00950051 53003
FBU ENFB Oslo, NO Oslo, Fornebu Airport 38 7/4 29.47 ENFB 150120Z AUTO 15038KT 9999 SCT016/// BKN054/// 07/04 Q0998 W///S4
ENSF 36 8/3 29.47 ENSF 150120Z AUTO 18036KT 9999 SCT016/// BKN053/// 08/03 Q0998 W///S4
KMWN 35 39 0.06 -3/-3 KMWN 150055Z 28035G39KT 1/16SM FZFG BLSN VV000 M03/M03 RMK SHSNE30 VRY LGT ICG
ENOA NO Oseberg A Platform 33 7/3 29.53 ENOA 150120Z 16033KT 9999 FEW018 SCT034 SCT039 07/03 Q1000 W///S4

Station
 
Location
 
Name
 
Wind
Knots
Gust
Knots
Vis
SM
Temp/Dew
C
Baro
inHg
METAR
 
YPH CYPH Inukjuak, CA Inukjuak Airport 33 38 2.25 -1/-2 29.43 CYPH 150135Z AUTO 08033G38KT 2 1/4SM -SN SCT011 OVC031 M01/M02 A2943 RMK SLP971
CWSP 32 9/5 CWSP 150100Z AUTO 28032KT 09/06 RMK AO1 PK WND 29035/0050 SLP177 T00910055 53007
EGOP 32 11/8 29.88 EGOP 150120Z AUTO 26032KT 9999 // OVC015/// 11/08 Q1012
ENGC 32 7/3 29.50 ENGC 150120Z 16032KT 9999 FEW020 BKN055 07/03 Q0999 W07/S4
ENQR 32 7/3 29.50 ENQR 150120Z AUTO 15032KT 9999 FEW021/// BKN056/// OVC077/// 07/03 Q0999 W02/S4
ENSE 31 7/3 29.50 ENSE 150120Z AUTO 16031KT //// FEW019/// OVC051/// 07/03 Q0999 W///S5
LNS KLNS Lancaster, US Lancaster Airport 30 41 22/9 29.76 KLNS 150053Z 34030G41KT 10SM -RA SCT080 OVC110 23/09 A2976 RMK AO2 PK WND 33041/0052 WSHFT 0037 RAB41 SLP077 P0000 T02280094
CWVH 30 46 -16/-19 30.20 CWVH 150115Z AUTO 30030G46KT ////SM ////// M16/M19 A3020
ENSL NO Sleipner A Platform 30 7/6 29.50 ENSL 150120Z AUTO 17030KT 9999 OVC010/// 07/06 Q0999 W05/S4
LGA KLGA New York, US La Guardia Airport 30 42 17/8 29.74 KLGA 150128Z 23030G42KT 10SM -RA FEW028 SCT065 OVC090 17/08 A2974 RMK AO2 PK WND 23042/0126 WSHFT 0113 RAB03 P0001 T01720083 $
SMN KSMN Salmon, US Lemhi County Airport 29 38 17/0 29.80 KSMN 150056Z AUTO 16029G38KT 10SM FEW075 OVC100 18/M01 A2980 RMK AO2 PK WND 17038/0054 SLP089 T01781006
PNE KPNE Philadelphia, US Northeast Philadelphia Airport 29 39 21/7 29.81 KPNE 150116Z 34029G39KT 10SM FEW070 SCT090 BKN110 22/08 A2981 RMK AO2 PK WND 33039/0116 WSHFT 0102 PRESRR T02170078 $
ENQA NO Troll A Platform 29 5/4 29.56 ENQA 150120Z AUTO 14029KT 9999 FEW007/// BKN085/// 05/04 Q1001 W03/S4
ADK PADK Adak Island, US Adak Airport 29 39 2.5 7/6 29.43 PADK 150127Z AUTO 19029G39KT 2 1/2SM -RA BR OVC013 07/06 A2943 RMK AO2 PK WND 18039/0120 VIS 1 3/4V4 P0003 $
ELN KELN Ellensburg, US Bowers Field 28 39 19/0 29.83 KELN 150053Z AUTO 30028G39KT 10SM CLR 19/01 A2983 RMK AO2 PK WND 30041/0034 SLP096 T01940006
INW KINW Winslow, US Winslow Lindbergh Regional Airport 28 38 19/-13 29.93 KINW 150056Z AUTO 21028G38KT 10SM CLR 19/M14 A2993 RMK AO2 PK WND 21040/0009 SLP100 T01941139
ENQC NO Troll C Platform 28 6/4 29.56 ENQC 150120Z AUTO 14028KT //// OVC079/// 06/04 Q1001 W///S4
ENUG 28 2/-1 29.50 ENUG 150120Z AUTO 28028KT 9999NDV SCT016/// BKN048/// 02/M01 Q0999 W///S5
TLA PATE Teller, US Teller Airport 28 1 -2/-3 30.01 PATE 150122Z AUTO 19028KT 1SM -SN BR OVC036 M02/M03 A3001 RMK AO2 PK WND 19033/0109 P0000 FZRANO
SNN EINN Shannon, IE Shannon Airport 28 41 10/8 29.76 EINN 150130Z 25028G41KT 9999 FEW012 SCT015 FEW018CB BKN019 10/08 Q1008 TEMPO SHRA
WAA PAIW Wales, US Wales Airport 28 2.5 -1/-2 29.96 PAIW 150131Z AUTO 18028KT 2 1/2SM UP BR OVC007 M01/M02 A2996 RMK AO2 PK WND 17032/0131 P0000 FZRANO
TNC PATC Tin City, US Tin City Long Range Radar Station Airport 28 7 -3/-3 29.95 PATC 150135Z AUTO 18028KT 140V210 7SM -FZRA BKN005 OVC041 M03/M03 A2995 RMK AO2 PK WND 18031/0135 SLP149
INS KINS Indian Springs, US Creech Air Force Base 27 12/0 29.89 KINS 150055Z AUTO 23027KT 10SM BKN100 OVC140 13/M00 A2989 RMK AO2 PK WND 26034/2355 RAB24E33RAB39E53 SLP099 P0000 T01271002 $
LIVP 27 7/3 30.24 LIVP 150055Z 24027KT CAVOK 07/03 Q1024
CWEB 27 33 9/5 CWEB 150100Z AUTO 31027G33KT 10/05 RMK AO1 PK WND 32035/0045 SLP187 T00970053 51005
CWSF 27 5/0 CWSF 150100Z AUTO 00027KT 05/M01 RMK AO1 SLP017 T00531008 51023
VLY EGOV Angelsey, GB Anglesey Airport 27 10/6 29.70 EGOV 150120Z AUTO 23027KT 9999 FEW087/// OVC100/// 10/06 Q1006
ENJS 27 6/6 29.53 ENJS 150120Z 18027KT 9999 -RA FEW010 BKN020 06/06 Q1000 W07/S4
AKB PAAK Atka, US Atka Airport 27 47 1.75 3/3 29.78 PAAK 150120Z AUTO 13027G47KT 1 3/4SM -RA BR OVC010 03/03 A2978 RMK AO2 PK WND 16053/0103 VIS 1 1/4V2 1/2 CIG 008V012 PRESFR P0001
CWZV 26 6/1 CWZV 150100Z AUTO 30026KT 07/01 RMK AO1 PK WND 30028/0021 SLP201 T00650011 53003
SVA PASA Savoonga, US Savoonga Airport 26 2 -1/-2 30.01 PASA 150113Z AUTO 19026KT 2SM BR OVC043 M01/M02 A3001 RMK AO2 PK WND 19028/0113 VIS 1 1/2V3 FZRANO
STG PAPB St George, US St George Airport 25 30 0/-2 30.21 PAPB 150053Z AUTO 16025G30KT 10SM FEW026 OVC032 00/M03 A3021 RMK AO2 PK WND 16030/0053 SLP218 T00001028 TSNO $
LSV KLSV Las Vegas, US Nellis Air Force Base 25 35 16/0 29.85 KLSV 150055Z AUTO 26025G35KT 10SM CLR 17/M00 A2985 RMK AO2 PK WND 27036/43 SLP099 T01691003 $
NJK KNJK El Centro, US El Centro NAF Airport (Vraciu Field) 25 34 21/3 30.01 KNJK 150056Z AUTO 26025G34KT 10SM -RA 22/04 A3001 RMK AO2 PK WND 29043/0018 SLP178 P0000 T02170039 $
CWRU 25 31 5/3 CWRU 150100Z AUTO 30025G31KT 06/04 RMK AO1 PK WND 30031/0059 SLP200 T00550036 53004
YYT CYYT St. John's, CA St. John's International Airport 25 33 8 8/8 29.88 CYYT 150100Z 20025G33KT 8SM -SHRA BKN004 OVC160 08/08 A2988 RMK ST7AC1 TCU EMBD SLP125
ENWV 25 8/5 29.68 ENWV 150120Z AUTO 20025KT 9999NDV OVC053/// 08/05 Q1005 W///S4
KHHV 25 6 23/18 29.96 KHHV 150135Z AUTO 16025KT 6SM HZ BKN022 OVC026 23/18 A2996 RMK A01
YVQ CYVQ Norman Wells, CA Norman Wells Airport 24 32 30 -2/-6 30.08 CYVQ 150100Z 28024G32KT 30SM FEW020 BKN065 BKN100 BKN240 M02/M06 A3008 RMK SC1SC4AC2CI1 CI TR CVCTV CLD EMBD SLP197
ENLE 24 7/5 29.65 ENLE 150120Z 19024KT CAVOK 07/05 Q1004 W08/S4
LUR PALU Cape Lisburne, US Cape Lisburne LRRS Airport 24 0.75 -7/-9 29.93 PALU 150123Z AUTO 19024KT 3/4SM -SN OVC023 M07/M09 A2993 RMK AO2 PK WND 21028/0119 SLP135
EHFD 24 9/7 29.76 EHFD 150125Z AUTO 21024KT 9999 SCT048/// 09/07 Q1008
EHJA 24 10/6 29.79 EHJA 150125Z AUTO 22024KT 9999 NSC 10/06 Q1009
SOW KSOW Show Low, US Show Low Regional Airport 24 35 16/-12 29.99 KSOW 150135Z AUTO 20024G35KT 10SM CLR 16/M12 A2999 RMK AO2
IOM EGNS Castletown, IM Isle of Man Airport 23 9/6 29.62 EGNS 150050Z 24023KT 9999 FEW020 09/06 Q1003